Time;durP1;ratioP1;P1;durP2;ratioP2;P2;SDS_P1;SDS_P2;PMS_P1;PMS_P2;Temp;Humidity;BMP_temperature;BMP_pressure;BME280_temperature;BME280_humidity;BME280_pressure;Samples;Min_cycle;Max_cycle;Signal;HPM_P1;HPM_P2
2023/06/26 00:01:51;;;;;;;13.60;11.50;;;25.50;70.20;;;;;;5098642;28;20028;-76
2023/06/26 00:04:16;;;;;;;14.73;11.60;;;25.40;69.80;;;;;;5081968;28;20052;-76
2023/06/26 00:06:42;;;;;;;13.15;11.15;;;25.40;69.70;;;;;;5098501;28;20019;-76
2023/06/26 00:09:08;;;;;;;12.40;11.05;;;25.40;69.80;;;;;;5101790;28;20433;-76
2023/06/26 00:11:33;;;;;;;15.15;11.52;;;25.40;69.70;;;;;;5119085;28;20083;-76
2023/06/26 00:14:00;;;;;;;14.13;11.65;;;25.30;69.90;;;;;;5137015;28;20107;-76
2023/06/26 00:16:26;;;;;;;12.35;10.90;;;25.30;69.40;;;;;;5085399;28;20023;-76
2023/06/26 00:18:52;;;;;;;15.10;11.30;;;25.30;70.30;;;;;;5136926;28;20035;-76
2023/06/26 00:21:19;;;;;;;13.05;11.15;;;25.40;69.30;;;;;;5118901;28;20034;-76
2023/06/26 00:23:45;;;;;;;14.00;11.23;;;25.40;69.10;;;;;;5118822;28;20027;-76
2023/06/26 00:26:11;;;;;;;13.20;11.18;;;25.40;68.80;;;;;;5101775;28;20046;-76
2023/06/26 00:28:37;;;;;;;13.80;11.57;;;25.40;69.20;;;;;;5136751;28;20046;-76
2023/06/26 00:31:02;;;;;;;14.10;11.60;;;25.40;69.60;;;;;;5136674;28;20031;-76
2023/06/26 00:33:28;;;;;;;13.77;11.55;;;25.40;68.80;;;;;;5118610;28;20047;-76
2023/06/26 00:35:54;;;;;;;12.02;10.82;;;25.30;67.30;;;;;;5118737;28;20043;-76
2023/06/26 00:38:20;;;;;;;14.65;12.02;;;25.20;67.40;;;;;;5136617;28;20057;-76
2023/06/26 00:40:45;;;;;;;13.70;10.50;;;25.20;67.40;;;;;;5118513;28;20023;-76
2023/06/26 00:43:11;;;;;;;12.73;10.25;;;25.10;67.50;;;;;;5118570;28;20036;-76
2023/06/26 00:45:36;;;;;;;13.38;10.52;;;24.90;67.40;;;;;;5136491;28;20031;-76
2023/06/26 00:48:03;;;;;;;12.15;10.25;;;24.80;67.60;;;;;;5084716;28;20047;-76
2023/06/26 00:50:29;;;;;;;14.35;11.23;;;24.90;67.70;;;;;;5118307;28;20038;-76
2023/06/26 00:53:00;;;;;;;13.88;11.10;;;24.80;67.80;;;;;;5118342;28;20020;-75
2023/06/26 00:55:26;;;;;;;15.40;11.45;;;24.80;68.00;;;;;;5101753;28;20059;-76
2023/06/26 00:57:51;;;;;;;13.13;10.68;;;24.80;68.30;;;;;;5118333;28;20032;-76
2023/06/26 01:00:18;;;;;;;14.23;11.43;;;24.70;68.50;;;;;;5118065;28;20521;-76
2023/06/26 01:02:43;;;;;;;15.65;10.93;;;24.60;68.60;;;;;;5136264;28;20027;-76
2023/06/26 01:05:12;;;;;;;13.00;10.73;;;24.60;68.80;;;;;;5101185;28;20028;-76
2023/06/26 01:07:38;;;;;;;11.80;10.20;;;24.60;68.80;;;;;;5117866;28;20020;-76
2023/06/26 01:10:06;;;;;;;13.88;10.20;;;24.60;68.80;;;;;;5101095;28;20016;-76
2023/06/26 01:12:33;;;;;;;12.32;10.38;;;24.70;68.60;;;;;;5101371;28;20031;-76
2023/06/26 01:14:59;;;;;;;12.50;10.32;;;24.60;68.40;;;;;;5117725;28;20053;-76
2023/06/26 01:17:31;;;;;;;12.10;10.10;;;24.60;68.50;;;;;;5117779;28;20036;-76
2023/06/26 01:20:04;;;;;;;13.00;9.90;;;24.60;68.60;;;;;;5100674;28;20053;-76
2023/06/26 01:22:46;;;;;;;12.45;9.75;;;24.60;68.60;;;;;;5117676;28;20169;-76
2023/06/26 01:25:20;;;;;;;13.60;10.07;;;24.50;68.70;;;;;;5135653;28;20030;-76
2023/06/26 01:27:52;;;;;;;11.13;9.38;;;24.50;68.90;;;;;;5117556;28;20084;-76
2023/06/26 01:30:19;;;;;;;10.98;9.20;;;24.50;69.10;;;;;;5135558;28;20559;-76
2023/06/26 01:32:45;;;;;;;11.75;9.35;;;24.40;69.10;;;;;;5117491;28;20027;-76
2023/06/26 01:35:12;;;;;;;11.10;8.80;;;24.40;69.10;;;;;;5100400;28;20035;-76
2023/06/26 01:37:37;;;;;;;10.23;8.57;;;24.40;69.00;;;;;;5135416;28;20035;-76
2023/06/26 01:40:07;;;;;;;13.00;9.65;;;24.30;69.20;;;;;;5117263;28;20087;-76
2023/06/26 01:42:33;;;;;;;11.73;8.48;;;24.30;69.10;;;;;;5084536;28;20058;-76
2023/06/26 01:45:10;;;;;;;10.90;8.05;;;24.30;68.50;;;;;;5117225;28;20023;-77
2023/06/26 01:47:38;;;;;;;9.43;8.43;;;24.30;68.10;;;;;;5135218;28;20402;-76
2023/06/26 01:50:16;;;;;;;8.65;7.20;;;24.40;68.00;;;;;;5100248;28;20024;-77
2023/06/26 01:52:53;;;;;;;6.85;6.00;;;24.40;67.30;;;;;;5117017;28;20016;-76
2023/06/26 01:55:46;;;;;;;7.85;5.93;;;24.40;66.60;;;;;;5116867;28;20051;-76
2023/06/26 01:58:14;;;;;;;8.38;5.93;;;24.50;66.50;;;;;;5135004;28;20038;-76
2023/06/26 02:00:40;;;;;;;6.60;5.10;;;24.40;66.30;;;;;;5116981;28;20016;-77
2023/06/26 02:03:06;;;;;;;8.18;5.10;;;24.50;66.20;;;;;;5116865;28;20099;-76
2023/06/26 02:05:32;;;;;;;6.68;4.70;;;24.50;65.80;;;;;;5117066;28;20049;-76
2023/06/26 02:07:58;;;;;;;7.78;4.32;;;24.40;65.00;;;;;;5134861;28;20050;-76
2023/06/26 02:10:24;;;;;;;5.85;4.28;;;24.40;64.90;;;;;;5116941;28;20020;-77
2023/06/26 02:12:49;;;;;;;7.30;3.95;;;24.40;64.70;;;;;;5134780;28;20035;-76
2023/06/26 02:15:15;;;;;;;7.75;3.90;;;24.30;64.60;;;;;;5099813;28;20036;-76
2023/06/26 02:17:40;;;;;;;7.25;3.63;;;24.30;64.30;;;;;;5099754;28;20031;-76
2023/06/26 02:20:10;;;;;;;7.60;4.15;;;24.20;64.10;;;;;;5116893;28;20053;-75
2023/06/26 02:22:35;;;;;;;5.05;3.30;;;24.20;64.00;;;;;;5116683;28;20023;-76
2023/06/26 02:25:01;;;;;;;5.15;3.38;;;24.10;64.20;;;;;;5099442;28;20039;-76
2023/06/26 02:27:27;;;;;;;6.05;3.33;;;24.10;64.40;;;;;;5099469;28;20054;-76
2023/06/26 02:29:53;;;;;;;5.47;3.25;;;24.10;64.40;;;;;;5116337;28;20063;-76
2023/06/26 02:32:18;;;;;;;6.10;3.28;;;24.00;64.40;;;;;;5134358;28;20043;-76
2023/06/26 02:34:44;;;;;;;5.60;3.25;;;24.00;64.80;;;;;;5116221;28;20020;-76
2023/06/26 02:37:10;;;;;;;5.10;3.35;;;23.90;64.90;;;;;;5116306;28;20032;-76
2023/06/26 02:39:36;;;;;;;7.50;3.40;;;23.90;65.10;;;;;;5134227;28;20050;-76
2023/06/26 02:42:01;;;;;;;5.70;3.30;;;23.90;65.30;;;;;;5099516;28;20019;-77
2023/06/26 02:44:27;;;;;;;5.28;3.50;;;23.90;65.50;;;;;;5082542;28;20047;-76
2023/06/26 02:46:52;;;;;;;6.03;3.33;;;23.90;65.60;;;;;;5099258;28;20054;-76
2023/06/26 02:49:18;;;;;;;8.23;3.53;;;23.90;65.90;;;;;;5099255;28;20035;-76
2023/06/26 02:51:44;;;;;;;5.43;3.25;;;23.80;65.90;;;;;;5116091;28;20034;-76
2023/06/26 02:54:09;;;;;;;6.25;3.60;;;23.80;66.20;;;;;;5115980;28;20055;-76
2023/06/26 02:56:35;;;;;;;5.55;3.35;;;23.70;66.40;;;;;;5134199;28;20083;-76
2023/06/26 02:59:00;;;;;;;6.30;3.67;;;23.80;66.70;;;;;;5116049;28;20032;-76
2023/06/26 03:01:26;;;;;;;5.57;3.15;;;23.70;66.60;;;;;;5116193;28;20035;-76
2023/06/26 03:03:52;;;;;;;5.97;3.50;;;23.70;66.70;;;;;;5099102;28;20126;-76
2023/06/26 03:06:18;;;;;;;7.88;3.35;;;23.70;66.70;;;;;;5116033;28;20020;-76
2023/06/26 03:08:43;;;;;;;5.60;3.22;;;23.70;66.80;;;;;;5133962;28;20077;-76
2023/06/26 03:11:10;;;;;;;4.85;3.03;;;23.70;67.00;;;;;;5099116;28;20020;-76
2023/06/26 03:13:36;;;;;;;6.78;3.30;;;23.60;67.10;;;;;;5133921;28;20083;-76
2023/06/26 03:16:03;;;;;;;5.45;3.20;;;23.60;67.40;;;;;;5115896;28;20030;-76
2023/06/26 03:24:17;;;;;;;5.68;3.40;;;23.50;68.10;;;;;;5098911;28;20051;-76
2023/06/26 03:26:42;;;;;;;6.20;3.08;;;23.50;68.20;;;;;;5098876;28;20035;-76
2023/06/26 03:29:08;;;;;;;8.05;3.38;;;23.50;68.20;;;;;;5115560;28;20035;-76
2023/06/26 03:31:34;;;;;;;7.32;3.53;;;23.40;68.30;;;;;;5098867;28;20034;-76
2023/06/26 03:34:00;;;;;;;5.65;3.47;;;23.50;68.60;;;;;;5098902;28;20020;-76
2023/06/26 03:36:25;;;;;;;8.85;4.10;;;23.40;68.70;;;;;;5098854;28;20028;-76
2023/06/26 03:38:53;;;;;;;6.53;4.10;;;23.40;68.90;;;;;;5133551;28;20047;-76
2023/06/26 03:41:18;;;;;;;8.40;4.32;;;23.30;69.30;;;;;;5133651;28;20020;-76
2023/06/26 03:43:44;;;;;;;6.55;4.00;;;23.30;69.40;;;;;;5118647;28;20039;-76
2023/06/26 03:46:09;;;;;;;7.50;4.10;;;23.30;69.60;;;;;;5102578;28;20027;-76
2023/06/26 03:48:35;;;;;;;7.75;4.13;;;23.30;70.00;;;;;;5137543;28;20028;-76
2023/06/26 03:51:02;;;;;;;8.40;4.00;;;23.20;70.10;;;;;;5102655;28;20031;-76
2023/06/26 03:53:27;;;;;;;8.07;4.40;;;23.20;70.50;;;;;;5102798;28;20033;-76
2023/06/26 03:55:53;;;;;;;8.30;4.05;;;23.20;70.70;;;;;;5119137;28;20387;-76
2023/06/26 03:58:18;;;;;;;5.80;3.88;;;23.20;70.90;;;;;;5102320;28;20045;-76
2023/06/26 04:00:44;;;;;;;7.63;4.15;;;23.20;70.90;;;;;;5137406;28;20049;-76
2023/06/26 04:03:11;;;;;;;8.55;4.05;;;23.10;71.00;;;;;;5137272;28;20030;-76
2023/06/26 04:05:36;;;;;;;7.20;3.90;;;23.00;71.30;;;;;;5119392;28;20027;-77
2023/06/26 04:08:02;;;;;;;5.80;3.53;;;23.00;71.60;;;;;;5085454;28;20020;-76
2023/06/26 04:10:28;;;;;;;8.43;3.95;;;23.00;71.80;;;;;;5119169;28;20406;-77
2023/06/26 04:12:53;;;;;;;7.18;3.95;;;22.90;72.10;;;;;;5137137;28;20035;-76
2023/06/26 04:15:19;;;;;;;8.20;4.40;;;22.80;72.40;;;;;;5118951;28;20031;-76
2023/06/26 04:17:44;;;;;;;7.25;4.07;;;22.60;72.80;;;;;;5119134;28;20063;-76
2023/06/26 04:20:11;;;;;;;8.00;4.45;;;22.50;73.20;;;;;;5085332;28;20027;-76
2023/06/26 04:22:36;;;;;;;7.60;4.18;;;22.40;73.90;;;;;;5102098;28;20027;-76
2023/06/26 04:25:03;;;;;;;7.25;4.30;;;22.30;73.90;;;;;;5101775;28;20062;-76
2023/06/26 04:27:30;;;;;;;7.90;4.53;;;22.20;74.00;;;;;;5118741;28;20015;-76
2023/06/26 04:29:55;;;;;;;9.07;4.35;;;22.10;74.40;;;;;;5118701;28;20023;-76
2023/06/26 04:32:21;;;;;;;7.03;4.50;;;22.10;74.70;;;;;;5118903;28;20028;-77
2023/06/26 04:34:47;;;;;;;6.15;4.15;;;22.10;74.70;;;;;;5136626;28;20031;-76
2023/06/26 04:37:17;;;;;;;8.82;5.07;;;22.00;75.90;;;;;;5101851;28;20031;-76
2023/06/26 04:39:42;;;;;;;8.52;4.22;;;22.00;75.20;;;;;;5102080;28;20020;-77
2023/06/26 04:42:09;;;;;;;8.73;4.88;;;22.00;75.30;;;;;;5101344;28;20059;-76
2023/06/26 04:44:34;;;;;;;7.95;4.80;;;21.90;75.50;;;;;;5101745;28;20028;-77
2023/06/26 04:47:00;;;;;;;9.23;5.05;;;21.80;75.70;;;;;;5118287;28;20082;-77
2023/06/26 04:49:27;;;;;;;9.45;5.00;;;21.80;75.70;;;;;;5101489;28;20091;-76
2023/06/26 04:51:54;;;;;;;8.50;4.65;;;21.80;76.40;;;;;;5136366;28;20037;-76
2023/06/26 04:54:19;;;;;;;9.95;4.97;;;21.70;76.60;;;;;;5117783;28;20044;-77
2023/06/26 04:56:47;;;;;;;9.32;4.55;;;21.80;76.70;;;;;;5118024;28;20106;-76
2023/06/26 04:59:14;;;;;;;8.13;4.40;;;21.80;76.70;;;;;;5101478;28;20035;-76
2023/06/26 05:01:40;;;;;;;9.45;4.47;;;21.80;76.70;;;;;;5136114;28;20031;-76
2023/06/26 05:04:06;;;;;;;12.40;4.70;;;21.80;77.20;;;;;;5118045;28;20041;-77
2023/06/26 05:06:32;;;;;;;10.02;4.45;;;21.80;77.40;;;;;;5135978;28;20024;-77
2023/06/26 05:08:57;;;;;;;8.85;4.45;;;21.80;77.40;;;;;;5136018;28;20020;-76
2023/06/26 05:11:24;;;;;;;9.35;4.38;;;21.80;77.70;;;;;;5117971;28;20028;-79
2023/06/26 05:13:50;;;;;;;9.38;4.57;;;21.90;77.60;;;;;;5100887;28;20432;-79
2023/06/26 05:16:16;;;;;;;9.82;4.63;;;22.00;77.80;;;;;;5135973;28;20047;-78
2023/06/26 05:18:41;;;;;;;11.13;4.95;;;22.10;77.80;;;;;;5100844;28;20035;-76
2023/06/26 05:21:07;;;;;;;11.23;4.00;;;22.10;78.60;;;;;;5083987;28;20034;-77
2023/06/26 05:23:34;;;;;;;9.30;4.55;;;22.10;78.00;;;;;;5117459;28;20119;-77
2023/06/26 05:26:03;;;;;;;9.05;4.60;;;22.00;78.30;;;;;;5117572;28;20019;-78
2023/06/26 05:28:33;;;;;;;10.00;4.82;;;22.10;78.60;;;;;;5135588;28;20031;-79
2023/06/26 05:31:00;;;;;;;9.07;4.22;;;22.00;78.20;;;;;;5135594;28;20015;-80
2023/06/26 05:33:27;;;;;;;8.38;4.72;;;22.10;78.50;;;;;;5100381;28;20028;-81
2023/06/26 05:35:53;;;;;;;10.73;5.10;;;22.10;78.40;;;;;;5100721;28;20042;-80
2023/06/26 05:38:20;;;;;;;8.57;4.43;;;22.10;78.60;;;;;;5117394;28;20079;-79
2023/06/26 05:40:46;;;;;;;10.10;5.00;;;22.20;78.70;;;;;;5100460;28;20032;-79
2023/06/26 05:43:12;;;;;;;12.90;4.70;;;22.20;78.40;;;;;;5117235;28;20022;-79
2023/06/26 05:45:37;;;;;;;11.82;4.10;;;22.20;78.30;;;;;;5100419;28;20031;-80
2023/06/26 05:48:03;;;;;;;11.85;4.05;;;22.30;78.30;;;;;;5117289;28;20065;-79
2023/06/26 05:50:29;;;;;;;9.73;3.40;;;22.40;78.10;;;;;;5117231;28;20039;-78
2023/06/26 05:52:55;;;;;;;10.52;3.63;;;22.40;77.80;;;;;;5117140;28;20045;-78
2023/06/26 05:55:22;;;;;;;11.88;3.72;;;22.40;77.50;;;;;;5134827;28;20051;-78
2023/06/26 05:57:49;;;;;;;10.85;3.40;;;22.40;77.10;;;;;;5135006;28;20031;-77
2023/06/26 06:00:15;;;;;;;9.85;3.55;;;22.40;77.00;;;;;;5116907;28;20019;-78
2023/06/26 06:02:42;;;;;;;9.82;3.90;;;22.40;77.10;;;;;;5100120;28;20049;-77
2023/06/26 06:05:08;;;;;;;8.98;3.92;;;22.50;77.10;;;;;;5116223;28;20034;-78
2023/06/26 06:07:35;;;;;;;12.25;3.72;;;22.50;76.90;;;;;;5117002;28;20083;-78
2023/06/26 06:10:02;;;;;;;11.40;3.83;;;22.50;77.00;;;;;;5100041;28;20024;-77
2023/06/26 06:12:28;;;;;;;11.90;3.15;;;22.60;76.90;;;;;;5100084;28;20115;-78
2023/06/26 06:14:56;;;;;;;9.30;3.65;;;22.60;76.30;;;;;;5116729;28;20024;-77
2023/06/26 06:17:22;;;;;;;6.07;3.00;;;22.50;75.90;;;;;;5116650;28;20011;-77
2023/06/26 06:19:48;;;;;;;8.80;3.33;;;22.50;76.10;;;;;;5134748;28;20024;-79
2023/06/26 06:22:13;;;;;;;9.82;3.78;;;22.50;76.10;;;;;;5116491;28;20050;-78
2023/06/26 06:24:39;;;;;;;11.68;3.58;;;22.60;75.90;;;;;;5099576;28;20023;-78
2023/06/26 06:27:05;;;;;;;8.48;3.35;;;22.60;76.10;;;;;;5099526;28;20046;-77
2023/06/26 06:29:31;;;;;;;8.40;3.60;;;22.60;76.10;;;;;;5116546;28;20031;-78
2023/06/26 06:31:56;;;;;;;8.63;4.05;;;22.60;76.00;;;;;;5099561;28;20035;-77
2023/06/26 06:34:22;;;;;;;10.63;3.08;;;22.70;75.80;;;;;;5116401;28;20023;-78
2023/06/26 06:36:49;;;;;;;10.68;3.20;;;22.70;75.80;;;;;;5099448;28;20027;-77
2023/06/26 06:39:15;;;;;;;10.35;3.50;;;22.70;75.40;;;;;;5099853;28;20026;-78
2023/06/26 06:41:41;;;;;;;9.02;3.47;;;22.80;75.60;;;;;;5134096;28;20062;-78
2023/06/26 06:44:06;;;;;;;8.60;3.40;;;22.80;74.70;;;;;;5099435;28;20034;-81
2023/06/26 06:46:32;;;;;;;10.43;3.47;;;22.90;75.30;;;;;;5099202;28;20031;-77
2023/06/26 06:48:58;;;;;;;11.45;3.53;;;22.90;74.70;;;;;;5116163;28;20028;-76
2023/06/26 06:51:23;;;;;;;9.55;2.92;;;23.00;74.50;;;;;;5115961;28;20090;-78
2023/06/26 06:53:49;;;;;;;9.25;2.88;;;23.00;74.00;;;;;;5099114;28;20027;-77
2023/06/26 06:56:15;;;;;;;9.73;3.22;;;23.00;73.70;;;;;;5099005;28;20078;-77
2023/06/26 06:58:42;;;;;;;5.75;2.53;;;23.00;73.60;;;;;;5116209;28;20038;-77
2023/06/26 07:01:09;;;;;;;7.50;3.00;;;23.00;72.70;;;;;;5115959;28;20032;-76
2023/06/26 07:03:35;;;;;;;6.03;2.35;;;23.10;71.70;;;;;;5116029;28;20031;-77
2023/06/26 07:06:01;;;;;;;7.30;2.85;;;23.10;71.80;;;;;;5116032;28;20099;-77
2023/06/26 07:08:27;;;;;;;6.28;2.80;;;23.20;71.80;;;;;;5115895;28;20095;-77
2023/06/26 07:10:53;;;;;;;5.80;2.50;;;23.30;71.60;;;;;;5116034;28;20019;-77
2023/06/26 07:13:19;;;;;;;7.07;2.55;;;23.40;70.90;;;;;;5115864;28;20038;-77
2023/06/26 07:15:47;;;;;;;6.65;2.83;;;23.40;69.90;;;;;;5116088;28;20044;-78
2023/06/26 07:18:13;;;;;;;5.07;2.42;;;23.40;70.10;;;;;;5136156;28;20024;-78
2023/06/26 07:20:39;;;;;;;4.95;2.67;;;23.40;69.40;;;;;;5120204;28;20080;-78
2023/06/26 07:23:04;;;;;;;4.00;2.35;;;23.40;69.50;;;;;;5119818;28;20028;-76
2023/06/26 07:25:30;;;;;;;7.25;2.55;;;23.40;70.10;;;;;;5137940;28;20047;-75
2023/06/26 07:27:55;;;;;;;7.43;3.05;;;23.50;70.30;;;;;;5119932;28;20049;-76
2023/06/26 07:30:21;;;;;;;6.13;2.53;;;23.60;70.20;;;;;;5102778;28;20034;-79
2023/06/26 07:32:47;;;;;;;5.97;2.70;;;23.60;70.10;;;;;;5119797;28;20024;-78
2023/06/26 07:35:13;;;;;;;5.50;2.58;;;23.60;70.00;;;;;;5102860;28;20030;-77
2023/06/26 07:37:38;;;;;;;4.75;2.45;;;23.60;69.90;;;;;;5102779;28;20035;-77
2023/06/26 07:40:04;;;;;;;8.25;2.78;;;23.50;69.70;;;;;;5119772;28;20024;-78
2023/06/26 07:42:30;;;;;;;3.92;2.88;;;23.50;69.30;;;;;;5102544;28;20032;-79
2023/06/26 07:44:56;;;;;;;6.82;2.55;;;23.50;69.40;;;;;;5102553;28;20055;-78
2023/06/26 07:47:21;;;;;;;5.32;2.60;;;23.60;69.40;;;;;;5102589;28;20102;-78
2023/06/26 07:49:47;;;;;;;5.07;2.80;;;23.60;69.80;;;;;;5102568;28;20031;-78
2023/06/26 07:52:14;;;;;;;6.15;2.70;;;23.70;69.70;;;;;;5102571;28;20032;-78
2023/06/26 07:54:40;;;;;;;6.55;3.00;;;23.80;69.70;;;;;;5103222;28;20044;-79
2023/06/26 07:57:06;;;;;;;7.43;3.08;;;23.80;69.60;;;;;;5085726;28;20048;-78
2023/06/26 07:59:33;;;;;;;6.55;2.85;;;23.80;69.10;;;;;;5137418;28;20551;-77
2023/06/26 08:01:59;;;;;;;4.57;2.55;;;23.70;69.40;;;;;;5119198;28;20032;-77
2023/06/26 08:04:26;;;;;;;6.15;2.72;;;23.60;69.40;;;;;;5119352;28;20053;-76
2023/06/26 08:06:54;;;;;;;5.40;3.00;;;23.60;69.60;;;;;;5137343;28;20027;-77
2023/06/26 08:09:21;;;;;;;6.68;3.10;;;23.70;69.90;;;;;;5137252;28;20050;-77
2023/06/26 08:11:47;;;;;;;8.10;3.08;;;23.70;69.80;;;;;;5137181;28;20019;-77
2023/06/26 08:14:13;;;;;;;7.88;3.13;;;23.80;69.80;;;;;;5137088;28;20035;-77
2023/06/26 08:16:46;;;;;;;5.60;3.10;;;23.70;69.20;;;;;;5136912;28;20091;-77
2023/06/26 08:19:12;;;;;;;7.30;3.15;;;23.80;69.60;;;;;;5118977;28;20024;-77
2023/06/26 08:21:38;;;;;;;6.90;3.08;;;23.80;69.60;;;;;;5118840;28;20024;-77
2023/06/26 08:24:04;;;;;;;6.80;2.95;;;23.90;68.60;;;;;;5136887;28;20052;-77
2023/06/26 08:26:29;;;;;;;8.35;2.90;;;23.80;69.00;;;;;;5119094;28;20040;-78
2023/06/26 08:28:55;;;;;;;10.32;2.83;;;23.90;69.60;;;;;;5101413;28;20037;-76
2023/06/26 08:31:21;;;;;;;4.97;3.00;;;23.90;69.40;;;;;;5101826;28;20405;-76
2023/06/26 08:33:47;;;;;;;5.75;3.28;;;23.90;69.50;;;;;;5101629;28;20020;-76
2023/06/26 08:36:13;;;;;;;8.60;3.22;;;23.90;69.20;;;;;;5101886;28;20024;-76
2023/06/26 08:38:41;;;;;;;6.10;3.22;;;23.90;68.90;;;;;;5118430;28;20020;-76
2023/06/26 08:41:08;;;;;;;4.95;2.88;;;23.90;69.60;;;;;;5136466;28;20046;-76
2023/06/26 08:43:34;;;;;;;4.85;3.17;;;23.90;70.30;;;;;;5118252;28;20070;-76
2023/06/26 08:46:00;;;;;;;8.27;3.92;;;24.00;68.20;;;;;;5101462;28;20552;-76
2023/06/26 08:48:25;;;;;;;7.00;3.33;;;23.90;68.00;;;;;;5101342;28;20028;-77
2023/06/26 08:50:54;;;;;;;6.50;3.38;;;23.80;66.90;;;;;;5118522;28;20046;-76
2023/06/26 08:53:47;;;;;;;6.43;2.80;;;23.80;67.00;;;;;;5118279;28;20023;-76
2023/06/26 08:56:15;;;;;;;4.20;2.30;;;23.70;66.20;;;;;;5136107;28;20086;-76
2023/06/26 08:58:41;;;;;;;3.95;2.50;;;23.70;66.80;;;;;;5118262;28;20019;-76
2023/06/26 09:01:07;;;;;;;4.70;2.13;;;23.70;65.80;;;;;;5101261;28;20019;-76
2023/06/26 09:03:32;;;;;;;4.60;2.13;;;23.80;65.60;;;;;;5118105;28;20039;-76
2023/06/26 09:05:58;;;;;;;4.90;2.28;;;23.90;65.80;;;;;;5118077;28;20024;-76
2023/06/26 09:08:24;;;;;;;4.30;2.30;;;24.00;66.20;;;;;;5118030;28;20049;-76
2023/06/26 09:10:50;;;;;;;3.13;1.85;;;24.00;66.10;;;;;;5118168;28;20491;-76
2023/06/26 09:13:16;;;;;;;3.45;1.70;;;24.10;64.30;;;;;;5135888;28;20031;-76
2023/06/26 09:15:43;;;;;;;3.45;1.60;;;24.10;62.90;;;;;;5135929;28;20028;-76
2023/06/26 09:18:09;;;;;;;3.88;1.70;;;24.10;62.40;;;;;;5084399;28;20031;-77
2023/06/26 09:20:36;;;;;;;4.32;1.27;;;24.20;64.00;;;;;;5117759;28;20067;-76
2023/06/26 09:23:02;;;;;;;2.60;1.30;;;24.30;62.90;;;;;;5101003;28;20036;-76
2023/06/26 09:25:28;;;;;;;2.78;1.10;;;24.40;61.30;;;;;;5135524;28;20019;-76
2023/06/26 09:27:55;;;;;;;1.70;1.00;;;24.40;61.10;;;;;;5117692;28;20020;-77
2023/06/26 09:30:20;;;;;;;2.30;0.88;;;24.40;60.60;;;;;;5100821;28;20019;-76
2023/06/26 09:32:47;;;;;;;2.83;1.10;;;24.40;56.80;;;;;;5135594;28;20024;-76
2023/06/26 09:35:12;;;;;;;2.30;0.85;;;24.50;55.80;;;;;;5135460;28;20068;-76
2023/06/26 09:37:38;;;;;;;1.42;0.80;;;24.50;54.20;;;;;;5100554;28;20023;-76
2023/06/26 09:40:05;;;;;;;1.83;0.93;;;24.60;54.40;;;;;;5099767;28;20047;-77
2023/06/26 09:42:31;;;;;;;2.42;1.05;;;24.50;55.50;;;;;;5135377;28;20020;-77
2023/06/26 09:44:57;;;;;;;1.50;0.80;;;24.40;55.90;;;;;;5117243;28;20020;-76
2023/06/26 09:47:23;;;;;;;2.28;0.93;;;24.40;56.00;;;;;;5100420;28;20028;-77
2023/06/26 09:49:50;;;;;;;2.38;1.00;;;24.50;56.60;;;;;;5100461;28;20063;-76
2023/06/26 09:52:16;;;;;;;3.33;1.02;;;24.60;55.70;;;;;;5135078;28;20046;-76
2023/06/26 09:54:44;;;;;;;2.40;1.00;;;24.70;55.70;;;;;;5100034;28;20039;-76
2023/06/26 09:57:12;;;;;;;2.38;0.77;;;24.70;54.00;;;;;;5117082;28;20046;-76
2023/06/26 09:59:38;;;;;;;2.63;1.13;;;24.70;53.80;;;;;;5117247;28;20057;-77
2023/06/26 10:02:04;;;;;;;2.60;1.13;;;24.70;54.10;;;;;;5117052;28;20034;-76
2023/06/26 10:04:30;;;;;;;3.70;1.00;;;24.80;54.90;;;;;;5116984;28;20027;-76
2023/06/26 10:06:57;;;;;;;2.20;1.00;;;24.90;55.10;;;;;;5099761;28;20103;-76
2023/06/26 10:09:24;;;;;;;1.58;0.90;;;24.90;53.10;;;;;;5134902;28;20046;-77
2023/06/26 10:11:57;;;;;;;2.97;1.13;;;25.00;52.00;;;;;;5083305;28;20050;-78
2023/06/26 10:14:26;;;;;;;3.17;1.20;;;24.90;50.60;;;;;;5134696;28;20047;-77
2023/06/26 10:16:56;;;;;;;4.43;1.08;;;24.70;51.10;;;;;;5134757;28;20037;-77
2023/06/26 10:19:25;;;;;;;4.18;1.08;;;24.90;53.40;;;;;;5116418;28;20081;-76
2023/06/26 10:21:54;;;;;;;2.83;1.10;;;25.00;53.50;;;;;;5117122;28;20024;-77
2023/06/26 10:24:23;;;;;;;2.30;0.95;;;25.00;51.60;;;;;;5116492;28;20023;-77
2023/06/26 10:26:55;;;;;;;2.25;1.10;;;24.90;52.60;;;;;;5099722;28;20034;-77
2023/06/26 10:29:23;;;;;;;3.28;0.85;;;24.90;52.70;;;;;;5134559;28;20501;-77
2023/06/26 10:31:54;;;;;;;2.05;1.00;;;24.90;53.10;;;;;;5116327;28;20031;-77
2023/06/26 10:34:20;;;;;;;4.22;1.30;;;24.90;53.20;;;;;;5134412;28;20027;-77
2023/06/26 10:36:47;;;;;;;3.00;1.02;;;25.00;52.40;;;;;;5099420;28;20028;-77
2023/06/26 10:39:13;;;;;;;3.88;1.17;;;24.90;53.20;;;;;;5116767;28;20075;-78
2023/06/26 10:41:43;;;;;;;3.58;1.05;;;24.90;53.00;;;;;;5116346;28;20041;-77
2023/06/26 10:44:10;;;;;;;4.40;0.82;;;24.90;53.60;;;;;;5117131;28;20087;-77
2023/06/26 10:46:52;;;;;;;2.25;0.82;;;25.00;53.80;;;;;;5116132;28;20045;-76
2023/06/26 10:49:29;;;;;;;4.43;0.88;;;25.10;52.10;;;;;;5134130;28;20490;-76
2023/06/26 10:51:57;;;;;;;3.15;1.30;;;25.10;51.80;;;;;;5134136;28;20012;-79
2023/06/26 10:54:23;;;;;;;3.08;0.93;;;25.10;50.90;;;;;;5115858;28;20042;-78
2023/06/26 10:56:50;;;;;;;3.17;1.05;;;25.20;51.20;;;;;;5099376;28;20035;-77
2023/06/26 10:59:23;;;;;;;2.75;0.65;;;25.20;48.90;;;;;;5134092;28;20107;-79
2023/06/26 11:02:06;;;;;;;1.25;0.63;;;25.20;48.70;;;;;;5116011;28;20087;-78
2023/06/26 11:04:45;;;;;;;;;;;25.20;46.30;;;;;;5134501;28;20022;-78
2023/06/26 11:07:20;;;;;;;1.38;0.63;;;25.20;45.50;;;;;;5133888;28;19908;-79
2023/06/26 11:09:56;;;;;;;4.18;0.88;;;24.90;44.90;;;;;;5115939;28;20073;-77
2023/06/26 11:12:42;;;;;;;4.00;1.25;;;24.80;43.40;;;;;;5115712;28;20045;-81
2023/06/26 11:15:15;;;;;;;3.55;0.70;;;24.70;45.80;;;;;;5115917;28;20016;-78
2023/06/26 11:17:42;;;;;;;1.23;0.60;;;24.90;47.50;;;;;;5115885;28;20019;-79
2023/06/26 11:20:10;;;;;;;1.67;0.68;;;25.10;47.90;;;;;;5133861;28;20020;-78
2023/06/26 11:22:37;;;;;;;2.20;0.68;;;25.20;45.20;;;;;;5115645;28;20077;-78
2023/06/26 11:25:04;;;;;;;0.82;0.50;;;25.30;44.90;;;;;;5115650;28;20053;-78
2023/06/26 11:27:40;;;;;;;2.92;0.80;;;25.30;44.30;;;;;;5116056;28;20031;-78
2023/06/26 11:30:08;;;;;;;2.65;0.80;;;25.30;44.70;;;;;;5116028;28;20035;-78
2023/06/26 11:32:34;;;;;;;3.35;0.85;;;25.50;44.60;;;;;;5115454;28;20474;-78
2023/06/26 11:35:00;;;;;;;0.90;0.60;;;25.50;45.10;;;;;;5098923;28;20134;-78
2023/06/26 11:37:26;;;;;;;1.58;0.80;;;25.60;44.30;;;;;;5115863;28;20020;-79
2023/06/26 11:39:52;;;;;;;4.10;0.80;;;25.50;43.80;;;;;;5115779;28;20099;-78
2023/06/26 11:42:21;;;;;;;2.67;0.60;;;25.60;43.90;;;;;;5115559;28;20028;-77
2023/06/26 11:44:46;;;;;;;2.80;1.08;;;25.50;41.80;;;;;;5115654;28;20046;-78
2023/06/26 11:47:17;;;;;;;4.47;1.00;;;25.40;42.50;;;;;;5133561;28;20051;-77
2023/06/26 11:49:44;;;;;;;2.53;0.88;;;25.20;43.70;;;;;;5115358;28;20023;-77
2023/06/26 11:52:10;;;;;;;1.33;0.57;;;25.30;42.20;;;;;;5115609;28;20030;-78
2023/06/26 11:54:36;;;;;;;1.23;0.70;;;25.30;41.50;;;;;;5115216;28;20048;-78
2023/06/26 11:57:01;;;;;;;2.80;0.90;;;25.30;41.00;;;;;;5133495;28;20091;-77
2023/06/26 11:59:45;;;;;;;2.60;0.80;;;25.20;41.10;;;;;;5098648;28;20028;-78
2023/06/26 12:02:15;;;;;;;3.05;0.77;;;25.20;41.80;;;;;;5115577;28;20032;-78
2023/06/26 12:04:42;;;;;;;2.42;0.90;;;25.20;41.60;;;;;;5101341;28;20475;-77
2023/06/26 12:07:09;;;;;;;1.75;0.88;;;25.20;43.20;;;;;;5137259;28;20038;-77
2023/06/26 12:09:47;;;;;;;2.67;0.80;;;25.40;43.40;;;;;;5119186;28;20023;-77
2023/06/26 12:12:16;;;;;;;2.85;0.80;;;25.50;43.20;;;;;;5137227;28;20028;-77
2023/06/26 12:14:41;;;;;;;1.30;0.93;;;25.60;42.40;;;;;;5119142;28;20012;-77
2023/06/26 12:17:12;;;;;;;4.18;1.00;;;25.50;42.30;;;;;;5119251;28;20069;-77
2023/06/26 12:19:39;;;;;;;1.67;0.82;;;25.50;43.30;;;;;;5137199;28;20027;-77
2023/06/26 12:22:08;;;;;;;2.63;0.70;;;25.50;44.00;;;;;;5119058;28;20027;-80
2023/06/26 12:24:38;;;;;;;2.08;1.08;;;25.60;45.00;;;;;;5119100;28;20032;-77
2023/06/26 12:27:09;;;;;;;1.65;0.77;;;25.70;45.50;;;;;;5118815;28;20087;-77
2023/06/26 12:29:35;;;;;;;2.72;0.90;;;25.90;44.40;;;;;;5136921;28;20048;-78
2023/06/26 12:32:02;;;;;;;2.30;0.80;;;25.90;43.10;;;;;;5118933;28;20049;-77
2023/06/26 12:34:33;;;;;;;1.10;0.90;;;26.00;42.00;;;;;;5136692;28;20023;-78
2023/06/26 12:37:04;;;;;;;1.10;0.70;;;25.90;42.60;;;;;;5119492;28;20039;-77
2023/06/26 12:39:44;;;;;;;3.60;0.90;;;25.90;41.40;;;;;;5136840;28;20034;-78
2023/06/26 12:42:14;;;;;;;3.53;0.98;;;25.70;42.40;;;;;;5136690;28;20638;-77
2023/06/26 12:44:40;;;;;;;1.45;0.80;;;25.60;43.20;;;;;;5118480;28;20099;-79
2023/06/26 12:47:07;;;;;;;2.45;0.95;;;25.70;42.70;;;;;;5136467;28;20043;-77
2023/06/26 12:49:35;;;;;;;3.28;1.00;;;25.70;41.90;;;;;;5118748;28;20428;-77